Search for airport 
image banner adimage banner adimage banner ad
image banner ad

86CN - Mercy Medical Center Merced

Located in Merced, United States

ICAO - 86CN, IATA -

Data provided by Airmate  

General information

Coordinates: N37°20'27" W120°28'0"
Elevation is 194 feet MSL.
 
View others Airports in California

Operational data

Special qualification required
Current time UTC:
Current local time:
Weather at : KMCE - Merced Rgnl/Macready Field ( 7 km )
METAR: KMCE 270353Z AUTO 28005KT 10SM CLR 27/06 A2987 RMK AO2 SLP114 T02670056
TAF: KMCE 262351Z 2700/2724 30007KT P6SM SCT250
View NOTAMs / SUP AIP / TFR affecting this airport [VIEW]
Communications frequencies: [VIEW]

Runways:

Airport contact information

Address: Merced United States

Satellite view of 86CN